In Rescue
 
Open Full Screen Window  High Contrast Mode
Wind Gusting 00 knots
10
July 13, 2020 11:43 PM CDT
Weather Information
Wind Direction
  240 °
Wind Speed
  10 kt (12 mph)
Wind Gust
  00 kt (0 mph)
Altimeter
29.69 in
Visibility
10 SM
Temperature
19° C
66° F
Dewpoint
16° C
61° F
Humidity
83%
1hr Rain Fall
00.00 in.
24hr Rain Fall
00.00 in.
Sky Condition
Clear
VFR

METAR KROX 140443Z AUTO 24010KT 10SM CLR 19/16 A2969 RMK AO2 TSNO PWINO

FAA Disclaimer: The data displayed is for advisory purposes only and is not to be used for flight planning or operations.